createdAt,value
2019-05-23T00:02:06.503Z,15.60
2019-05-23T00:05:04.278Z,15.13
2019-05-23T00:07:45.036Z,11.48
2019-05-23T00:10:35.200Z,9.55
2019-05-23T00:13:30.388Z,14.63
2019-05-23T00:16:09.836Z,13.95
2019-05-23T00:18:45.031Z,14.38
2019-05-23T00:21:23.054Z,18.65
2019-05-23T00:23:58.748Z,13.55
2019-05-23T00:26:34.610Z,12.93
2019-05-23T00:29:13.169Z,13.83
2019-05-23T00:32:06.491Z,19.98
2019-05-23T00:34:41.657Z,14.13
2019-05-23T00:37:22.350Z,17.57
2019-05-23T00:40:00.487Z,12.25
2019-05-23T00:42:38.264Z,21.02
2019-05-23T00:45:19.641Z,26.33
2019-05-23T00:47:58.005Z,19.65
2019-05-23T00:50:34.988Z,45.75
2019-05-23T00:53:14.264Z,17.25
2019-05-23T00:55:50.465Z,15.48
2019-05-23T00:58:28.035Z,14.13
2019-05-23T01:01:06.523Z,10.05
2019-05-23T01:03:45.451Z,15.58
2019-05-23T01:06:24.650Z,17.25
2019-05-23T01:09:14.012Z,19.02
2019-05-23T01:12:04.135Z,11.28
2019-05-23T01:14:43.502Z,27.05
2019-05-23T01:17:24.775Z,13.88
2019-05-23T01:20:00.032Z,12.40
2019-05-23T01:22:39.199Z,10.88
2019-05-23T01:25:15.974Z,11.22
2019-05-23T01:27:58.293Z,13.35
2019-05-23T01:30:43.393Z,10.43
2019-05-23T01:33:24.936Z,9.98
2019-05-23T01:36:03.170Z,8.93
2019-05-23T01:38:44.676Z,10.38
2019-05-23T01:41:22.820Z,10.43
2019-05-23T01:44:05.667Z,10.05
2019-05-23T01:46:45.804Z,9.25
2019-05-23T01:49:27.398Z,9.75
2019-05-23T01:52:08.487Z,14.80
2019-05-23T01:54:49.826Z,23.20
2019-05-23T01:57:30.614Z,26.27
2019-05-23T02:00:11.632Z,12.20
2019-05-23T02:02:51.111Z,10.55
2019-05-23T02:05:29.219Z,9.98
2019-05-23T02:08:07.024Z,9.83
2019-05-23T02:10:45.720Z,8.40
2019-05-23T02:13:26.458Z,11.28
2019-05-23T02:16:08.266Z,10.30
2019-05-23T02:18:49.650Z,8.38
2019-05-23T02:21:30.701Z,24.80
2019-05-23T02:24:11.122Z,12.43
2019-05-23T02:26:54.411Z,13.10
2019-05-23T02:29:35.529Z,15.18
2019-05-23T02:32:15.670Z,11.85
2019-05-23T02:34:56.388Z,20.52
2019-05-23T02:37:50.054Z,14.65
2019-05-23T02:40:37.958Z,32.17
2019-05-23T02:43:19.420Z,22.87
2019-05-23T02:46:03.008Z,9.48
2019-05-23T02:48:45.727Z,8.38
2019-05-23T02:51:31.298Z,13.98
2019-05-23T02:54:12.789Z,11.97
2019-05-23T02:56:53.434Z,14.75
2019-05-23T02:59:45.659Z,9.35
2019-05-23T03:03:04.336Z,15.78
2019-05-23T03:05:43.086Z,11.25
2019-05-23T03:08:24.057Z,9.00
2019-05-23T03:11:26.413Z,12.43
2019-05-23T03:14:10.719Z,19.25
2019-05-23T03:16:47.744Z,14.18
2019-05-23T03:19:46.591Z,10.18
2019-05-23T03:22:36.012Z,13.38
2019-05-23T03:25:40.131Z,12.65
2019-05-23T03:28:21.393Z,10.63
2019-05-23T03:31:26.510Z,13.85
2019-05-23T03:33:43.309Z,16.42
2019-05-23T03:36:22.943Z,12.80
2019-05-23T03:39:02.230Z,14.15
2019-05-23T03:41:41.634Z,11.22
2019-05-23T03:44:21.344Z,9.05
2019-05-23T03:46:59.784Z,10.60
2019-05-23T03:49:38.929Z,13.00
2019-05-23T03:52:18.393Z,13.32
2019-05-23T03:54:59.165Z,14.53
2019-05-23T03:57:38.186Z,20.48
2019-05-23T04:00:20.485Z,10.15
2019-05-23T04:02:59.400Z,18.85
2019-05-23T04:05:39.678Z,10.30
2019-05-23T04:08:17.410Z,17.73
2019-05-23T04:10:57.527Z,36.75
2019-05-23T04:13:36.417Z,13.53
2019-05-23T04:16:13.225Z,18.92
2019-05-23T04:18:51.923Z,9.90
2019-05-23T04:21:29.749Z,13.10
2019-05-23T04:24:10.585Z,16.30
2019-05-23T04:26:50.547Z,9.05
2019-05-23T04:29:29.473Z,11.48
2019-05-23T04:32:13.166Z,11.55
2019-05-23T04:34:51.075Z,23.12
2019-05-23T04:37:28.975Z,13.28
2019-05-23T04:40:06.758Z,7.62
2019-05-23T04:42:44.552Z,20.68
2019-05-23T04:45:25.203Z,11.45
2019-05-23T04:48:03.298Z,11.68
2019-05-23T04:50:41.609Z,13.60
2019-05-23T04:53:19.896Z,10.82
2019-05-23T04:55:57.953Z,9.28
2019-05-23T04:58:38.412Z,11.38
2019-05-23T05:01:17.491Z,10.50
2019-05-23T05:03:56.113Z,23.60
2019-05-23T05:06:33.660Z,11.60
2019-05-23T05:09:15.393Z,12.55
2019-05-23T05:11:55.221Z,20.48
2019-05-23T05:14:34.684Z,12.73
2019-05-23T05:17:15.809Z,12.30
2019-05-23T05:19:53.919Z,8.78
2019-05-23T05:22:32.063Z,11.88
2019-05-23T05:25:12.021Z,25.23
2019-05-23T05:27:52.080Z,10.13
2019-05-23T05:30:32.567Z,11.20
2019-05-23T05:33:10.546Z,20.23
2019-05-23T05:35:50.016Z,11.55
2019-05-23T05:38:29.189Z,10.70
2019-05-23T05:41:07.353Z,17.07
2019-05-23T05:43:42.502Z,15.28
2019-05-23T05:46:21.147Z,10.40
2019-05-23T05:49:03.722Z,17.70
2019-05-23T05:51:42.620Z,17.73
2019-05-23T05:54:24.173Z,12.63
2019-05-23T05:56:59.565Z,39.70
2019-05-23T05:59:34.640Z,27.07
2019-05-23T06:02:13.459Z,18.57
2019-05-23T06:04:48.758Z,13.53
2019-05-23T06:07:34.895Z,13.13
2019-05-23T06:10:16.436Z,21.57
2019-05-23T06:12:54.125Z,15.25
2019-05-23T06:15:33.174Z,14.23
2019-05-23T06:18:11.234Z,8.63
2019-05-23T06:20:51.997Z,45.75
2019-05-23T06:23:31.082Z,17.85
2019-05-23T06:26:08.620Z,10.08
2019-05-23T06:28:48.434Z,8.25
2019-05-23T06:31:27.483Z,17.10
2019-05-23T06:34:05.461Z,13.55
2019-05-23T06:36:43.174Z,13.20
2019-05-23T06:39:23.965Z,14.98
2019-05-23T06:42:03.774Z,9.78
2019-05-23T06:44:43.206Z,35.85
2019-05-23T06:47:21.268Z,23.47
2019-05-23T06:49:59.605Z,11.30
2019-05-23T06:52:44.763Z,16.97
2019-05-23T06:55:22.665Z,16.75
2019-05-23T06:58:00.761Z,13.68
2019-05-23T07:00:42.271Z,13.28
2019-05-23T07:03:20.113Z,13.10
2019-05-23T07:05:58.089Z,12.90
2019-05-23T07:08:41.158Z,17.75
2019-05-23T07:11:18.946Z,10.20
2019-05-23T07:14:00.125Z,15.30
2019-05-23T07:16:38.156Z,14.95
2019-05-23T07:19:15.927Z,14.65
2019-05-23T07:21:51.206Z,9.28
2019-05-23T07:24:26.600Z,11.08
2019-05-23T07:27:01.641Z,14.07
2019-05-23T07:29:41.346Z,20.17
2019-05-23T07:32:18.849Z,12.47
2019-05-23T07:34:57.488Z,12.35
2019-05-23T07:37:35.405Z,15.15
2019-05-23T07:40:15.188Z,10.90
2019-05-23T07:42:50.777Z,15.98
2019-05-23T07:45:31.264Z,12.90
2019-05-23T07:48:09.264Z,12.98
2019-05-23T07:50:44.711Z,18.73
2019-05-23T07:53:50.847Z,11.95
2019-05-23T07:56:31.045Z,12.80
2019-05-23T07:59:09.041Z,11.68
2019-05-23T08:01:55.398Z,12.82
2019-05-23T08:04:33.091Z,9.53
2019-05-23T08:07:11.248Z,13.43
2019-05-23T08:09:48.519Z,16.25
2019-05-23T08:12:28.752Z,13.88
2019-05-23T08:15:08.781Z,11.85
2019-05-23T08:17:48.600Z,12.45
2019-05-23T08:20:27.359Z,16.48
2019-05-23T08:23:06.184Z,13.22
2019-05-23T08:25:48.205Z,14.07
2019-05-23T08:28:29.044Z,17.02
2019-05-23T08:31:06.311Z,23.50
2019-05-23T08:33:47.503Z,18.35
2019-05-23T08:36:27.761Z,18.15
2019-05-23T08:39:02.906Z,16.60
2019-05-23T08:41:41.008Z,17.80
2019-05-23T08:44:19.012Z,16.12
2019-05-23T08:47:01.473Z,12.18
2019-05-23T08:49:42.348Z,13.65
2019-05-23T08:52:20.406Z,13.72
2019-05-23T08:54:56.663Z,11.20
2019-05-23T08:57:37.041Z,10.38
2019-05-23T09:00:16.125Z,13.80
2019-05-23T09:02:58.537Z,13.50
2019-05-23T09:05:34.188Z,10.60
2019-05-23T09:08:16.717Z,12.20
2019-05-23T09:10:54.255Z,10.78
2019-05-23T09:13:33.324Z,20.85
2019-05-23T09:16:11.333Z,12.55
2019-05-23T09:18:50.939Z,14.85
2019-05-23T09:21:26.019Z,20.35
2019-05-23T09:24:03.833Z,16.05
2019-05-23T09:26:41.570Z,21.35
2019-05-23T09:29:20.822Z,21.35
2019-05-23T09:32:01.126Z,23.45
2019-05-23T09:34:39.264Z,31.12
2019-05-23T09:37:17.874Z,28.42
2019-05-23T09:39:57.648Z,27.93
2019-05-23T09:42:38.828Z,31.48
2019-05-23T09:45:21.197Z,37.98
2019-05-23T09:47:58.882Z,41.40
2019-05-23T09:50:36.664Z,37.55
2019-05-23T09:53:15.760Z,28.02
2019-05-23T09:55:55.773Z,32.28
2019-05-23T09:58:35.695Z,24.80
2019-05-23T10:01:13.599Z,22.48
2019-05-23T10:03:53.287Z,22.52
2019-05-23T10:06:31.253Z,22.93
2019-05-23T10:09:09.626Z,21.33
2019-05-23T10:11:47.531Z,29.00
2019-05-23T10:14:33.051Z,19.15
2019-05-23T10:17:14.312Z,20.90
2019-05-23T10:19:52.157Z,25.88
2019-05-23T10:22:30.547Z,22.67
2019-05-23T10:25:11.735Z,26.82
2019-05-23T10:27:49.408Z,28.07
2019-05-23T10:30:27.290Z,22.55
2019-05-23T10:33:12.787Z,29.80
2019-05-23T10:36:00.601Z,21.35
2019-05-23T10:38:30.212Z,21.27
2019-05-23T10:41:08.392Z,17.82
2019-05-23T10:43:53.858Z,23.18
2019-05-23T10:46:31.509Z,16.52
2019-05-23T10:49:15.482Z,16.37
2019-05-23T10:51:53.470Z,23.87
2019-05-23T10:54:33.702Z,20.88
2019-05-23T10:57:15.806Z,20.40
2019-05-23T10:59:54.437Z,23.83
2019-05-23T11:02:32.468Z,22.30
2019-05-23T11:05:13.644Z,24.02
2019-05-23T11:07:52.123Z,31.65
2019-05-23T11:10:36.191Z,32.13
2019-05-23T11:13:15.069Z,33.02
2019-05-23T11:15:51.202Z,25.85
2019-05-23T11:18:29.403Z,21.60
2019-05-23T11:21:05.245Z,26.82
2019-05-23T11:23:46.118Z,19.23
2019-05-23T11:26:24.675Z,21.68
2019-05-23T11:29:01.602Z,17.30
2019-05-23T11:31:43.752Z,17.55
2019-05-23T11:34:22.890Z,14.80
2019-05-23T11:37:01.015Z,15.00
2019-05-23T11:39:49.702Z,14.13
2019-05-23T11:42:21.492Z,13.98
2019-05-23T11:45:00.484Z,16.80
2019-05-23T11:47:40.287Z,17.23
2019-05-23T11:50:18.040Z,18.40
2019-05-23T11:52:57.388Z,15.25
2019-05-23T11:55:35.110Z,14.45
2019-05-23T11:58:15.815Z,17.35
2019-05-23T12:01:37.567Z,16.75
2019-05-23T12:04:24.037Z,15.40
2019-05-23T12:07:18.619Z,17.60
2019-05-23T12:09:57.526Z,12.75
2019-05-23T12:12:35.168Z,15.10
2019-05-23T12:15:15.704Z,20.85
2019-05-23T12:17:56.308Z,18.90
2019-05-23T12:20:32.481Z,17.65
2019-05-23T12:23:12.445Z,17.55
2019-05-23T12:25:51.322Z,21.12
2019-05-23T12:28:29.297Z,23.73
2019-05-23T12:31:07.664Z,25.02
2019-05-23T12:33:45.407Z,31.60
2019-05-23T12:36:23.223Z,25.77
2019-05-23T12:39:10.684Z,16.05
2019-05-23T12:41:48.921Z,20.57
2019-05-23T12:44:32.940Z,21.10
2019-05-23T12:47:20.941Z,19.77
2019-05-23T12:50:05.247Z,17.50
2019-05-23T12:52:46.771Z,20.97
2019-05-23T12:55:25.778Z,16.27
2019-05-23T12:58:10.352Z,18.12
2019-05-23T13:01:01.774Z,19.00
2019-05-23T13:03:39.485Z,17.27
2019-05-23T13:06:17.436Z,13.83
2019-05-23T13:08:55.346Z,17.85
2019-05-23T13:11:33.166Z,16.10
2019-05-23T13:14:14.662Z,18.62
2019-05-23T13:16:54.357Z,16.12
2019-05-23T13:19:33.060Z,13.18
2019-05-23T13:22:11.403Z,17.05
2019-05-23T13:24:53.203Z,19.00
2019-05-23T13:27:29.559Z,17.00
2019-05-23T13:30:08.672Z,20.85
2019-05-23T13:32:48.498Z,19.82
2019-05-23T13:35:26.731Z,14.80
2019-05-23T13:38:04.430Z,18.37
2019-05-23T13:40:45.513Z,15.32
2019-05-23T13:43:23.291Z,14.93
2019-05-23T13:46:02.801Z,18.60
2019-05-23T13:48:40.607Z,22.87
2019-05-23T13:51:18.468Z,14.78
2019-05-23T13:53:56.231Z,15.18
2019-05-23T13:56:36.856Z,15.70
2019-05-23T13:59:16.497Z,18.25
2019-05-23T14:01:54.399Z,15.75
2019-05-23T14:04:32.100Z,18.07
2019-05-23T14:07:11.512Z,19.30
2019-05-23T14:09:49.545Z,17.15
2019-05-23T14:12:28.289Z,22.00
2019-05-23T14:15:06.166Z,15.40
2019-05-23T14:17:49.774Z,20.12
2019-05-23T14:20:31.588Z,24.02
2019-05-23T14:23:25.177Z,17.35
2019-05-23T14:26:07.085Z,19.32
2019-05-23T14:28:44.963Z,19.73
2019-05-23T14:31:24.775Z,19.65
2019-05-23T14:34:07.923Z,16.93
2019-05-23T14:36:53.738Z,17.73
2019-05-23T14:39:43.290Z,17.20
2019-05-23T14:42:43.378Z,22.37
2019-05-23T14:45:43.165Z,15.60
2019-05-23T14:48:47.419Z,15.95
2019-05-23T14:51:49.986Z,14.65
2019-05-23T14:54:46.273Z,17.40
2019-05-23T14:57:24.359Z,17.30
2019-05-23T15:00:02.117Z,15.85
2019-05-23T15:02:41.441Z,17.60
2019-05-23T15:05:21.942Z,17.55
2019-05-23T15:08:05.332Z,17.07
2019-05-23T15:10:45.280Z,17.62
2019-05-23T15:13:23.362Z,19.12
2019-05-23T15:16:04.229Z,18.30
2019-05-23T15:18:44.315Z,21.87
2019-05-23T15:21:25.424Z,18.27
2019-05-23T15:24:04.728Z,22.85
2019-05-23T15:26:43.672Z,23.35
2019-05-23T15:29:21.468Z,21.17
2019-05-23T15:32:02.816Z,20.12
2019-05-23T15:34:39.584Z,17.95
2019-05-23T15:37:17.343Z,21.82
2019-05-23T15:39:57.397Z,16.73
2019-05-23T15:42:34.976Z,16.75
2019-05-23T15:45:18.366Z,21.17
2019-05-23T15:48:01.024Z,16.23
2019-05-23T15:50:44.424Z,19.67
2019-05-23T15:53:33.221Z,17.42
2019-05-23T15:56:30.986Z,18.75
2019-05-23T15:59:34.296Z,18.60
2019-05-23T16:02:33.425Z,20.05
2019-05-23T16:05:14.204Z,23.75
2019-05-23T16:07:56.800Z,21.95
2019-05-23T16:10:34.494Z,18.55
2019-05-23T16:13:14.247Z,22.02
2019-05-23T16:15:56.061Z,16.30
2019-05-23T16:18:34.470Z,22.05
2019-05-23T16:21:14.507Z,16.82
2019-05-23T16:23:54.971Z,18.65
2019-05-23T16:26:33.897Z,20.43
2019-05-23T16:29:16.788Z,18.65
2019-05-23T16:31:54.732Z,19.57
2019-05-23T16:34:34.296Z,20.60
2019-05-23T16:37:14.054Z,21.42
2019-05-23T16:39:51.687Z,14.70
2019-05-23T16:42:31.139Z,17.77
2019-05-23T16:45:09.055Z,18.50
2019-05-23T16:47:48.392Z,21.15
2019-05-23T16:50:27.951Z,17.73
2019-05-23T16:53:08.340Z,22.45
2019-05-23T16:55:56.669Z,19.57
2019-05-23T16:59:02.717Z,20.43
2019-05-23T17:02:05.631Z,19.77
2019-05-23T17:05:08.737Z,23.42
2019-05-23T17:07:47.568Z,17.27
2019-05-23T17:10:32.987Z,24.12
2019-05-23T17:13:28.673Z,19.48
2019-05-23T17:16:31.660Z,19.85
2019-05-23T17:19:17.528Z,18.60
2019-05-23T17:22:10.181Z,17.65
2019-05-23T17:25:07.176Z,18.07
2019-05-23T17:28:22.218Z,16.35
2019-05-23T17:31:18.405Z,16.82
2019-05-23T17:33:56.065Z,16.45
2019-05-23T17:36:33.971Z,23.67
2019-05-23T17:39:14.896Z,16.65
2019-05-23T17:41:53.778Z,18.57
2019-05-23T17:44:29.410Z,16.95
2019-05-23T17:47:07.578Z,16.82
2019-05-23T17:49:45.904Z,16.37
2019-05-23T17:52:27.622Z,23.80
2019-05-23T17:55:08.253Z,20.75
2019-05-23T17:57:45.264Z,23.38
2019-05-23T18:06:33.947Z,34.58
2019-05-23T18:09:13.582Z,23.92
2019-05-23T18:11:55.360Z,21.10
2019-05-23T18:14:32.045Z,18.62
2019-05-23T18:17:11.840Z,22.98
2019-05-23T18:19:47.069Z,21.23
2019-05-23T18:22:25.983Z,21.23
2019-05-23T18:25:05.446Z,20.68
2019-05-23T18:27:43.962Z,22.82
2019-05-23T18:30:44.866Z,23.90
2019-05-23T18:33:21.666Z,23.22
2019-05-23T18:35:59.950Z,22.32
2019-05-23T18:38:43.533Z,21.75
2019-05-23T18:41:21.658Z,22.85
2019-05-23T18:44:07.453Z,21.45
2019-05-23T18:46:47.564Z,22.22
2019-05-23T18:49:27.609Z,22.40
2019-05-23T18:52:06.016Z,23.05
2019-05-23T18:54:47.196Z,23.87
2019-05-23T18:57:25.063Z,21.62
2019-05-23T19:00:00.650Z,21.45
2019-05-23T19:02:41.316Z,23.30
2019-05-23T19:05:26.724Z,22.60
2019-05-23T19:08:03.510Z,24.18
2019-05-23T19:10:41.545Z,23.27
2019-05-23T19:13:19.179Z,25.55
2019-05-23T19:15:58.183Z,24.43
2019-05-23T19:18:34.581Z,22.02
2019-05-23T19:21:17.257Z,30.32
2019-05-23T19:23:55.147Z,24.10
2019-05-23T19:26:32.061Z,24.70
2019-05-23T19:29:09.769Z,40.92
2019-05-23T19:31:47.418Z,29.85
2019-05-23T19:34:25.218Z,27.32
2019-05-23T19:37:03.274Z,28.85
2019-05-23T19:39:42.631Z,33.75
2019-05-23T19:42:18.994Z,30.60
2019-05-23T19:44:58.512Z,26.57
2019-05-23T19:47:38.054Z,29.25
2019-05-23T19:50:15.964Z,27.75
2019-05-23T19:52:51.279Z,29.37
2019-05-23T19:55:26.329Z,28.00
2019-05-23T19:58:03.778Z,33.63
2019-05-23T20:00:41.589Z,33.78
2019-05-23T20:03:22.459Z,31.42
2019-05-23T20:06:00.191Z,34.53
2019-05-23T20:08:37.917Z,33.42
2019-05-23T20:11:16.935Z,36.95
2019-05-23T20:13:56.394Z,33.98
2019-05-23T20:16:34.081Z,42.38
2019-05-23T20:19:16.506Z,36.88
2019-05-23T20:21:55.855Z,35.98
2019-05-23T20:24:33.997Z,40.05
2019-05-23T20:27:11.655Z,39.18
2019-05-23T20:29:51.867Z,35.68
2019-05-23T20:32:29.681Z,33.35
2019-05-23T20:35:06.001Z,38.05
2019-05-23T20:37:42.151Z,38.50
2019-05-23T20:40:20.594Z,45.00
2019-05-23T20:43:02.524Z,41.45
2019-05-23T20:45:39.767Z,43.23
2019-05-23T20:48:17.551Z,42.23
2019-05-23T20:50:55.165Z,43.68
2019-05-23T20:53:32.930Z,45.05
2019-05-23T20:56:08.400Z,46.68
2019-05-23T20:58:48.288Z,44.40
2019-05-23T21:01:38.081Z,42.78
2019-05-23T21:04:19.759Z,46.23
2019-05-23T21:06:57.401Z,44.05
2019-05-23T21:09:37.392Z,46.05
2019-05-23T21:12:28.730Z,47.13
2019-05-23T21:14:51.147Z,50.73
2019-05-23T21:17:31.864Z,47.00
2019-05-23T21:20:15.991Z,58.85
2019-05-23T21:22:53.584Z,49.65
2019-05-23T21:25:31.389Z,47.78
2019-05-23T21:28:06.599Z,48.15
2019-05-23T21:30:45.359Z,49.58
2019-05-23T21:33:25.577Z,54.80
2019-05-23T21:36:00.109Z,47.93
2019-05-23T21:38:37.663Z,52.83
2019-05-23T21:41:18.956Z,54.73
2019-05-23T21:44:01.443Z,51.95
2019-05-23T21:46:37.144Z,56.48
2019-05-23T21:49:12.252Z,55.60
2019-05-23T21:51:51.592Z,52.27
2019-05-23T21:54:27.827Z,53.42
2019-05-23T21:57:02.972Z,54.42
2019-05-23T21:59:37.984Z,55.65
2019-05-23T22:02:37.091Z,54.20
2019-05-23T22:05:24.218Z,60.17
2019-05-23T22:08:01.927Z,52.15
2019-05-23T22:10:37.121Z,55.40
2019-05-23T22:13:19.857Z,60.00
2019-05-23T22:15:56.432Z,61.58
2019-05-23T22:18:35.479Z,54.00
2019-05-23T22:21:13.162Z,59.80
2019-05-23T22:23:50.977Z,55.25
2019-05-23T22:26:30.829Z,58.02
2019-05-23T22:29:10.497Z,58.30
2019-05-23T22:31:45.672Z,54.67
2019-05-23T22:34:47.910Z,56.55
2019-05-23T22:37:29.722Z,55.23
2019-05-23T22:40:05.978Z,52.17
2019-05-23T22:42:44.429Z,54.10
2019-05-23T22:45:24.386Z,53.42
2019-05-23T22:47:59.701Z,57.40
2019-05-23T22:50:38.630Z,51.83
2019-05-23T22:53:13.952Z,49.55
2019-05-23T22:55:49.038Z,47.78
2019-05-23T22:58:28.359Z,50.65
2019-05-23T23:01:03.670Z,45.90
2019-05-23T23:03:38.894Z,46.60
2019-05-23T23:06:14.154Z,50.67
2019-05-23T23:08:53.873Z,51.55
2019-05-23T23:11:31.628Z,48.58
2019-05-23T23:14:16.168Z,50.63
2019-05-23T23:16:54.008Z,60.83
2019-05-23T23:19:31.884Z,54.65
2019-05-23T23:22:06.999Z,55.63
2019-05-23T23:24:44.487Z,57.20
2019-05-23T23:27:22.625Z,61.33
2019-05-23T23:30:00.745Z,66.00
2019-05-23T23:32:38.364Z,64.53
2019-05-23T23:35:16.231Z,52.33
2019-05-23T23:37:53.906Z,55.48
2019-05-23T23:40:29.101Z,54.63
2019-05-23T23:43:06.653Z,51.70
2019-05-23T23:46:00.188Z,59.63
2019-05-23T23:48:57.226Z,54.70
2019-05-23T23:51:53.132Z,64.03
2019-05-23T23:54:44.112Z,64.65
2019-05-23T23:57:38.902Z,60.50
